Colorado Springs, CO (80941)

2:43 AM MDT on July 07, 2015 (GMT -0600)
Palmer Park | | Change Station
CLOSE
Current Station
Personal Weather Station
Location: Colorado Springs, CO
Elevation: 6381 ft
Nearby Weather Stations

Elev 6381 ft 38.87 °N, 104.77 °W | Updated 9 minutes ago

Overcast
Overcast
54.7 °F
Feels Like 54.7 °F
N
6.3
Wind Variable Wind from SE

Today
High -- | Low -- °F
--% Chance of Precip.
Yesterday
High -- | Low -- °F
Precip. -- in
5:40 AM 8:26 PM
Waning Gibbous, 67% visible
Pressure 30.15 in
Visibility 3.0 miles
Clouds Few 400 ft
Scattered Clouds 1600 ft
Overcast 2200 ft
Dew Point 53 °F
Humidity 94%
Rainfall 0.02 in
Snow Depth Not available.
UV 0 out of 12
Pollen 2.80 out of 12
Air Quality Not available.
Flu Activity Not available.
METAR KCOS 070754Z 19003KT 3SM -DZ BR FEW004 SCT016 OVC022 14/12 A3034 RMK AO2 DZB37 SLP208 P0000 T01390122

More Conditions Fewer Conditions

Pressure 30.15 in
Visibility 3.0 miles
Clouds Few 400 ft
Scattered Clouds 1600 ft
Overcast 2200 ft
Dew Point 53 °F
Humidity 94%
Rainfall 0.02 in
Snow Depth Not available.
UV 0 out of 12
Pollen 2.80 out of 12
Air Quality Not available.
Flu Activity Not available.
METAR KCOS 070754Z 19003KT 3SM -DZ BR FEW004 SCT016 OVC022 14/12 A3034 RMK AO2 DZB37 SLP208 P0000 T01390122

More Conditions Fewer Conditions

10-Day Weather Forecast

×

Almanac

Astronomy

Jul. 07, 2015 Rise Set
Actual Time
Civil Twilight
Nautical Twilight
Astronomical Twilight
Moon
Length of Visible Light
Length of Day
Tomorrow will be .
, % of the Moon is Illuminated

Today's Extremes

State Highs State Lows

Community

WunderPhotos

Upload Photos

1,835,758 photos uploaded!

WunderBlogs® & News

Nearby

Air Quality

  Air Quality AQ Index Pollutant
Not available.

Snow Depth

Station Depth Elevation

Earthquake Activity

City Distance Mag. Time & Date
Minimum magnitude displayed is 2.5.

Coastal Water Temperatures

Place Temperature

Stations

Nearby Weather Stations

Station Location Temp. Windchill Dew Point Humidity Wind Precip. Elev Updated Type